Time;durP1;ratioP1;P1;durP2;ratioP2;P2;SDS_P1;SDS_P2;PMS_P1;PMS_P2;Temp;Humidity;BMP_temperature;BMP_pressure;BME280_temperature;BME280_humidity;BME280_pressure;Samples;Min_cycle;Max_cycle;Signal;HPM_P1;HPM_P2
2022/03/27 00:00:56;;;;;;;0.50;0.50;;;;;;;;;;5073926;28;20471;-65
2022/03/27 00:03:43;;;;;;;0.40;0.40;;;5.40;99.90;;;;;;5071679;28;20428;-65
2022/03/27 00:06:30;;;;;;;0.40;0.40;;;5.40;99.90;;;;;;5072832;28;20427;-64
2022/03/27 00:09:17;;;;;;;0.40;0.40;;;5.40;99.90;;;;;;5072889;28;20467;-65
2022/03/27 00:12:06;;;;;;;0.40;0.40;;;5.30;99.90;;;;;;5073274;28;20936;-65
2022/03/27 00:14:53;;;;;;;0.40;0.40;;;5.30;99.90;;;;;;5072436;28;20419;-65
2022/03/27 00:17:40;;;;;;;0.40;0.40;;;5.30;99.90;;;;;;5072531;28;20456;-65
2022/03/27 00:20:27;;;;;;;0.40;0.40;;;5.20;99.90;;;;;;5072979;28;20452;-64
2022/03/27 00:23:14;;;;;;;0.70;0.70;;;5.20;99.90;;;;;;5072589;28;20423;-65
2022/03/27 00:26:01;;;;;;;0.40;0.40;;;5.10;99.90;;;;;;5072549;28;20450;-65
2022/03/27 00:28:50;;;;;;;1.63;1.53;;;5.10;99.90;;;;;;5072627;28;20451;-65
2022/03/27 00:31:38;;;;;;;0.40;0.40;;;5.10;99.90;;;;;;5072548;28;20424;-65
2022/03/27 00:34:25;;;;;;;0.40;0.40;;;5.10;99.90;;;;;;5072214;28;20423;-65
2022/03/27 00:37:12;;;;;;;0.40;0.40;;;5.10;99.90;;;;;;5072105;28;20996;-64
2022/03/27 00:39:59;;;;;;;0.40;0.40;;;5.00;99.90;;;;;;5076038;28;20467;-64
2022/03/27 00:42:46;;;;;;;0.40;0.40;;;5.00;99.90;;;;;;5076122;28;20419;-65
2022/03/27 00:45:34;;;;;;;0.40;0.40;;;4.90;99.90;;;;;;5075662;28;20427;-65
2022/03/27 00:48:22;;;;;;;0.40;0.40;;;4.90;99.90;;;;;;5076420;28;20443;-65
2022/03/27 00:51:09;;;;;;;0.40;0.40;;;4.90;99.90;;;;;;5076272;28;20419;-65
2022/03/27 00:53:57;;;;;;;0.40;0.40;;;4.90;99.90;;;;;;5075823;28;20430;-65
2022/03/27 00:56:44;;;;;;;0.40;0.40;;;4.80;99.90;;;;;;5075685;28;20428;-65
2022/03/27 00:59:31;;;;;;;0.47;0.47;;;4.80;99.90;;;;;;5075827;28;20518;-65
2022/03/27 01:02:21;;;;;;;0.40;0.40;;;4.80;99.90;;;;;;5076121;28;20426;-65
2022/03/27 01:05:13;;;;;;;0.40;0.40;;;4.80;99.90;;;;;;5075944;28;20422;-65
2022/03/27 01:08:05;;;;;;;0.40;0.40;;;4.70;99.90;;;;;;5080916;28;20479;-65
2022/03/27 01:10:52;;;;;;;0.40;0.40;;;4.70;99.90;;;;;;5098009;28;20428;-65
2022/03/27 01:13:42;;;;;;;0.50;0.50;;;4.70;99.90;;;;;;5093887;28;20439;-65
2022/03/27 01:16:36;;;;;;;0.40;0.40;;;4.70;99.90;;;;;;5092644;28;20487;-65
2022/03/27 01:19:26;;;;;;;0.40;0.40;;;4.70;99.90;;;;;;5090991;28;20440;-65
2022/03/27 01:22:15;;;;;;;0.40;0.40;;;4.60;99.90;;;;;;5094209;28;20431;-65
2022/03/27 01:25:02;;;;;;;0.40;0.40;;;4.60;99.90;;;;;;5096438;28;20404;-65
2022/03/27 01:27:49;;;;;;;0.40;0.40;;;4.60;99.90;;;;;;5096618;28;20439;-65
2022/03/27 01:30:37;;;;;;;1.00;0.97;;;4.60;99.90;;;;;;5095553;28;20423;-66
2022/03/27 01:33:24;;;;;;;0.40;0.40;;;4.50;99.90;;;;;;5093747;28;20440;-65
2022/03/27 01:36:11;;;;;;;0.40;0.40;;;4.50;99.90;;;;;;5096070;28;20427;-66
2022/03/27 01:38:59;;;;;;;0.40;0.40;;;4.50;99.90;;;;;;5096029;28;20477;-65
2022/03/27 01:41:46;;;;;;;0.40;0.40;;;4.50;99.90;;;;;;5082336;28;20463;-65
2022/03/27 01:44:34;;;;;;;0.40;0.40;;;4.50;99.90;;;;;;5076008;28;20430;-65
2022/03/27 01:47:21;;;;;;;0.40;0.40;;;4.50;99.90;;;;;;5075177;28;20944;-64
2022/03/27 01:50:09;;;;;;;0.40;0.40;;;4.40;99.90;;;;;;5074423;28;20955;-65
2022/03/27 01:52:56;;;;;;;0.50;0.50;;;4.40;99.90;;;;;;5074455;28;20936;-65
2022/03/27 01:55:44;;;;;;;0.50;0.50;;;4.40;99.90;;;;;;5074350;28;20956;-64
2022/03/27 01:58:31;;;;;;;0.40;0.40;;;4.40;99.90;;;;;;5071207;28;20450;-64
2022/03/27 02:01:19;;;;;;;0.40;0.40;;;4.40;99.90;;;;;;5073601;28;20463;-65
2022/03/27 02:04:11;;;;;;;0.40;0.40;;;4.30;99.90;;;;;;5074665;28;20958;-64
2022/03/27 02:06:58;;;;;;;0.50;0.50;;;4.30;99.90;;;;;;5074427;28;20999;-64
2022/03/27 02:09:45;;;;;;;0.67;0.67;;;4.20;99.90;;;;;;5075098;28;20416;-64
2022/03/27 02:12:34;;;;;;;0.40;0.40;;;4.30;99.90;;;;;;5072818;28;20420;-64
2022/03/27 02:15:21;;;;;;;0.40;0.40;;;4.30;99.90;;;;;;5074880;28;20416;-64
2022/03/27 02:18:10;;;;;;;0.40;0.40;;;4.20;99.90;;;;;;5074672;28;20497;-64
2022/03/27 02:21:00;;;;;;;0.40;0.40;;;4.20;99.90;;;;;;5074490;28;20967;-65
2022/03/27 02:23:47;;;;;;;0.50;0.50;;;4.20;99.90;;;;;;5073500;28;20458;-65
2022/03/27 02:26:34;;;;;;;0.40;0.40;;;4.20;99.90;;;;;;5074043;28;20451;-65
2022/03/27 02:29:22;;;;;;;0.67;0.67;;;4.00;99.90;;;;;;5074366;28;20444;-64
2022/03/27 02:32:10;;;;;;;0.40;0.40;;;4.10;99.90;;;;;;5074227;28;20424;-65
2022/03/27 02:34:57;;;;;;;0.40;0.40;;;4.00;99.90;;;;;;5074424;28;20424;-65
2022/03/27 02:37:44;;;;;;;0.40;0.40;;;4.00;99.90;;;;;;5073899;28;20935;-65
2022/03/27 02:40:31;;;;;;;0.40;0.40;;;4.00;99.90;;;;;;5074373;28;20834;-64
2022/03/27 02:43:18;;;;;;;0.50;0.50;;;4.00;99.90;;;;;;5073283;28;20427;-64
2022/03/27 02:46:07;;;;;;;0.40;0.40;;;3.90;99.90;;;;;;5073863;28;20423;-64
2022/03/27 02:48:54;;;;;;;0.40;0.40;;;3.90;99.90;;;;;;5073560;28;20439;-65
2022/03/27 02:51:42;;;;;;;0.40;0.40;;;3.90;99.90;;;;;;5073015;28;20435;-65
2022/03/27 02:54:29;;;;;;;0.50;0.50;;;3.90;99.90;;;;;;5073732;28;20435;-64
2022/03/27 02:57:16;;;;;;;0.40;0.40;;;3.90;99.90;;;;;;5073628;28;20434;-64
2022/03/27 03:00:05;;;;;;;0.60;0.60;;;3.90;99.90;;;;;;5073567;28;20928;-64
2022/03/27 03:02:54;;;;;;;0.50;0.50;;;3.90;99.90;;;;;;5073272;28;20419;-65
2022/03/27 03:05:42;;;;;;;0.40;0.40;;;3.90;99.90;;;;;;5072683;28;20944;-64
2022/03/27 03:08:29;;;;;;;0.50;0.50;;;3.90;99.90;;;;;;5089103;22;20497;-70
2022/03/27 03:11:16;;;;;;;0.90;0.90;;;3.90;99.90;;;;;;5052566;28;20500;-69
2022/03/27 03:14:03;;;;;;;0.50;0.50;;;4.00;99.90;;;;;;5052578;28;20428;-69
2022/03/27 03:16:52;;;;;;;0.50;0.50;;;4.00;99.90;;;;;;5052571;28;20429;-70
2022/03/27 03:19:40;;;;;;;0.50;0.50;;;3.90;99.90;;;;;;5052681;28;20968;-69
2022/03/27 03:22:28;;;;;;;0.50;0.50;;;3.90;99.90;;;;;;5052443;28;20880;-69
2022/03/27 03:25:15;;;;;;;0.50;0.50;;;3.90;99.90;;;;;;5053703;28;20825;-68
2022/03/27 03:28:02;;;;;;;0.50;0.50;;;3.90;99.90;;;;;;5053303;28;20463;-70
2022/03/27 03:30:48;;;;;;;0.50;0.50;;;3.90;99.90;;;;;;5052953;28;20767;-67
2022/03/27 03:33:35;;;;;;;2.00;1.90;;;3.90;99.90;;;;;;5052311;28;20963;-69
2022/03/27 03:36:24;;;;;;;0.50;0.50;;;3.80;99.90;;;;;;5052591;28;20428;-70
2022/03/27 03:39:11;;;;;;;0.50;0.50;;;3.90;99.90;;;;;;5052586;28;20444;-70
2022/03/27 03:41:58;;;;;;;0.50;0.50;;;3.90;99.90;;;;;;5052571;28;20464;-69
2022/03/27 03:44:45;;;;;;;0.50;0.50;;;3.90;99.90;;;;;;5052627;28;20427;-70
2022/03/27 03:47:31;;;;;;;0.50;0.50;;;3.80;99.90;;;;;;5052653;28;20460;-69
2022/03/27 03:50:18;;;;;;;0.50;0.50;;;3.80;99.90;;;;;;5052526;28;20420;-69
2022/03/27 03:53:07;;;;;;;0.50;0.50;;;3.80;99.90;;;;;;5052022;28;20444;-69
2022/03/27 03:55:54;;;;;;;0.50;0.50;;;3.70;99.90;;;;;;5052815;28;20428;-70
2022/03/27 03:58:41;;;;;;;0.50;0.50;;;3.70;99.90;;;;;;5032834;28;20445;-69
2022/03/27 04:01:28;;;;;;;0.50;0.50;;;3.60;99.90;;;;;;5032390;28;20838;-68
2022/03/27 04:04:15;;;;;;;0.50;0.50;;;3.60;99.90;;;;;;5033014;28;20433;-70
2022/03/27 04:07:04;;;;;;;0.50;0.50;;;3.60;99.90;;;;;;5052346;28;20455;-69
2022/03/27 04:09:52;;;;;;;0.50;0.50;;;3.60;99.90;;;;;;5052258;28;20460;-70
2022/03/27 04:12:39;;;;;;;0.50;0.50;;;3.60;99.90;;;;;;5054563;28;20413;-69
2022/03/27 04:15:26;;;;;;;0.50;0.50;;;3.50;99.90;;;;;;5056155;28;20425;-70
2022/03/27 04:18:14;;;;;;;0.77;0.77;;;3.50;99.90;;;;;;5056107;28;20452;-69
2022/03/27 04:21:01;;;;;;;0.50;0.50;;;3.50;99.90;;;;;;5056186;28;20463;-69
2022/03/27 04:23:48;;;;;;;0.50;0.50;;;3.50;99.90;;;;;;5056928;28;20417;-69
2022/03/27 04:26:39;;;;;;;0.50;0.50;;;3.40;99.90;;;;;;5055975;28;20429;-69
2022/03/27 04:29:26;;;;;;;0.50;0.50;;;3.40;99.90;;;;;;5056152;28;20444;-69
2022/03/27 04:32:13;;;;;;;0.50;0.50;;;3.40;99.90;;;;;;5055456;28;20976;-69
2022/03/27 04:35:00;;;;;;;0.50;0.50;;;3.40;99.90;;;;;;5056235;28;20436;-69
2022/03/27 04:37:47;;;;;;;0.50;0.50;;;3.30;99.90;;;;;;5055650;28;20436;-69
2022/03/27 04:40:34;;;;;;;0.50;0.50;;;3.30;99.90;;;;;;5056145;28;20429;-70
2022/03/27 04:43:23;;;;;;;0.50;0.50;;;3.30;99.90;;;;;;5056320;28;20440;-69
2022/03/27 04:46:10;;;;;;;0.50;0.50;;;3.30;99.90;;;;;;5060279;28;20516;-70
2022/03/27 04:48:57;;;;;;;0.60;0.60;;;3.30;99.90;;;;;;5071812;28;20467;-69
2022/03/27 04:51:43;;;;;;;0.50;0.50;;;3.30;99.90;;;;;;5074025;28;20416;-69
2022/03/27 04:54:32;;;;;;;0.50;0.50;;;3.30;99.90;;;;;;5074758;28;20429;-70
2022/03/27 04:57:19;;;;;;;0.50;0.50;;;3.20;99.90;;;;;;5075619;28;20529;-68
2022/03/27 05:00:10;;;;;;;0.50;0.50;;;3.20;99.90;;;;;;5075955;28;20405;-69
2022/03/27 05:02:57;;;;;;;0.83;0.83;;;3.20;99.90;;;;;;5075340;28;20464;-68
2022/03/27 05:05:44;;;;;;;0.50;0.50;;;3.30;99.90;;;;;;5075466;28;20464;-69
2022/03/27 05:08:32;;;;;;;0.50;0.50;;;3.30;99.90;;;;;;5075880;28;20464;-68
2022/03/27 05:11:19;;;;;;;0.50;0.50;;;3.30;99.90;;;;;;5076166;28;20436;-68
2022/03/27 05:14:08;;;;;;;0.67;0.67;;;3.30;99.90;;;;;;5075889;28;20432;-69
2022/03/27 05:16:56;;;;;;;0.50;0.50;;;3.30;99.90;;;;;;5075688;28;20435;-68
2022/03/27 05:19:43;;;;;;;0.50;0.50;;;3.40;99.90;;;;;;5055079;28;20821;-69
2022/03/27 05:22:30;;;;;;;0.50;0.50;;;3.40;99.90;;;;;;5054087;28;20979;-70
2022/03/27 05:25:18;;;;;;;0.50;0.50;;;3.50;99.90;;;;;;5053483;28;20428;-69
2022/03/27 05:28:05;;;;;;;0.60;0.60;;;3.60;99.90;;;;;;5054370;28;20961;-70
2022/03/27 05:30:52;;;;;;;0.50;0.50;;;3.50;99.90;;;;;;5053359;28;20486;-69
2022/03/27 05:33:41;;;;;;;0.50;0.50;;;3.50;99.90;;;;;;5053883;28;20425;-68
2022/03/27 05:36:27;;;;;;;0.40;0.40;;;3.60;99.90;;;;;;5053648;28;20960;-69
2022/03/27 05:39:14;;;;;;;0.50;0.50;;;3.60;99.90;;;;;;5052423;28;20452;-69
2022/03/27 05:42:01;;;;;;;0.50;0.50;;;3.70;99.90;;;;;;5053215;28;20464;-69
2022/03/27 05:44:48;;;;;;;0.50;0.50;;;3.70;99.90;;;;;;5053778;28;20482;-70
2022/03/27 05:47:37;;;;;;;0.90;0.90;;;3.80;99.90;;;;;;5053831;28;20431;-69
2022/03/27 05:50:25;;;;;;;0.50;0.50;;;3.80;99.90;;;;;;5054371;28;20436;-69
2022/03/27 05:53:12;;;;;;;0.50;0.50;;;3.90;99.90;;;;;;5053859;28;20436;-69
2022/03/27 05:56:00;;;;;;;0.40;0.40;;;3.90;99.90;;;;;;5053183;28;20436;-69
2022/03/27 05:58:47;;;;;;;0.50;0.50;;;4.00;99.90;;;;;;5034017;28;20933;-69
2022/03/27 06:01:34;;;;;;;0.50;0.50;;;4.10;99.90;;;;;;5033989;28;20468;-69
2022/03/27 06:04:20;;;;;;;0.40;0.40;;;4.20;99.90;;;;;;5034315;28;20433;-69
2022/03/27 06:07:09;;;;;;;0.40;0.40;;;4.20;99.90;;;;;;5033732;28;20838;-70
2022/03/27 06:09:56;;;;;;;0.50;0.50;;;4.70;99.90;;;;;;5034323;28;20510;-69
2022/03/27 06:12:44;;;;;;;0.50;0.50;;;4.90;99.90;;;;;;5033308;28;20804;-70
2022/03/27 06:15:33;;;;;;;0.50;0.50;;;5.00;99.90;;;;;;5034730;28;21088;-70
2022/03/27 06:18:19;;;;;;;0.50;0.50;;;5.00;99.90;;;;;;5034220;28;20437;-70
2022/03/27 06:21:07;;;;;;;0.60;0.60;;;5.00;99.90;;;;;;5033616;28;20440;-70
2022/03/27 06:23:55;;;;;;;0.50;0.50;;;5.00;99.90;;;;;;5034552;28;20425;-70
2022/03/27 06:26:42;;;;;;;0.50;0.50;;;5.00;99.90;;;;;;5032650;28;20434;-70
2022/03/27 06:29:29;;;;;;;0.53;0.53;;;5.10;99.90;;;;;;5034092;28;20453;-70
2022/03/27 06:32:16;;;;;;;0.50;0.50;;;5.10;99.90;;;;;;5034432;28;20429;-70
2022/03/27 06:35:05;;;;;;;1.07;1.07;;;5.20;99.90;;;;;;5034532;28;20440;-71
2022/03/27 06:37:53;;;;;;;0.50;0.50;;;5.30;99.90;;;;;;5033659;28;20433;-72
2022/03/27 06:40:41;;;;;;;0.50;0.50;;;5.40;99.90;;;;;;5032502;28;20949;-70
2022/03/27 06:43:28;;;;;;;0.40;0.40;;;5.50;99.90;;;;;;5033539;28;20473;-69
2022/03/27 06:46:17;;;;;;;0.50;0.50;;;5.60;99.90;;;;;;5033566;28;20425;-70
2022/03/27 06:49:03;;;;;;;1.90;1.80;;;5.70;99.90;;;;;;5033884;28;20984;-69
2022/03/27 06:51:50;;;;;;;0.50;0.50;;;5.80;99.90;;;;;;5032912;28;20467;-70
2022/03/27 06:54:37;;;;;;;0.40;0.40;;;5.80;99.90;;;;;;5033844;28;20425;-70
2022/03/27 06:57:26;;;;;;;0.50;0.50;;;6.00;99.90;;;;;;5044205;28;20943;-70
2022/03/27 07:03:20;;;;;;;0.50;0.50;;;6.20;99.90;;;;;;5031343;28;20499;-69
2022/03/27 07:06:07;;;;;;;0.50;0.50;;;6.30;99.90;;;;;;5033500;28;20425;-72
2022/03/27 07:08:54;;;;;;;0.50;0.50;;;6.30;99.90;;;;;;5032439;28;20465;-71
2022/03/27 07:11:42;;;;;;;1.50;1.50;;;6.50;99.90;;;;;;5033235;28;21078;-70
2022/03/27 07:14:30;;;;;;;0.50;0.50;;;6.50;99.90;;;;;;5031861;28;20429;-70
2022/03/27 07:17:17;;;;;;;0.50;0.50;;;6.70;99.90;;;;;;5032795;28;20429;-69
2022/03/27 07:20:05;;;;;;;1.50;1.47;;;6.80;99.90;;;;;;5032486;28;20428;-70
2022/03/27 07:22:53;;;;;;;0.50;0.50;;;7.00;99.90;;;;;;5031329;28;20481;-69
2022/03/27 07:25:42;;;;;;;0.40;0.40;;;7.10;99.90;;;;;;5033340;28;20422;-69
2022/03/27 07:28:31;;;;;;;0.50;0.50;;;7.20;99.90;;;;;;5032939;28;20962;-71
2022/03/27 07:31:20;;;;;;;0.50;0.50;;;7.30;99.90;;;;;;5033061;28;20421;-68
2022/03/27 07:34:07;;;;;;;1.73;1.63;;;7.50;99.90;;;;;;5032682;28;20414;-70
2022/03/27 07:36:54;;;;;;;0.50;0.50;;;7.40;99.90;;;;;;5033144;28;20465;-70
2022/03/27 07:39:41;;;;;;;0.40;0.40;;;7.70;99.90;;;;;;5032491;28;21028;-72
2022/03/27 07:42:28;;;;;;;0.50;0.50;;;7.70;99.90;;;;;;5036174;28;20472;-70
2022/03/27 07:45:15;;;;;;;0.40;0.40;;;7.90;99.90;;;;;;5046402;28;20946;-70
2022/03/27 07:48:05;;;;;;;0.40;0.40;;;7.90;99.90;;;;;;5047215;28;20859;-71
2022/03/27 07:50:54;;;;;;;0.47;0.47;;;8.10;99.90;;;;;;5038469;28;20421;-70
2022/03/27 07:53:41;;;;;;;0.50;0.50;;;8.30;99.90;;;;;;5039307;28;20417;-69
2022/03/27 07:56:29;;;;;;;0.50;0.50;;;8.40;99.90;;;;;;5043144;28;20436;-70
2022/03/27 07:59:16;;;;;;;0.40;0.40;;;8.50;99.90;;;;;;5058530;28;20445;-70
2022/03/27 08:02:04;;;;;;;0.50;0.50;;;8.70;99.90;;;;;;5058521;28;20468;-69
2022/03/27 08:04:52;;;;;;;0.50;0.50;;;8.70;99.90;;;;;;5058591;28;20420;-71
2022/03/27 08:07:39;;;;;;;0.50;0.50;;;8.90;99.90;;;;;;5058331;28;20804;-70
2022/03/27 08:10:26;;;;;;;0.50;0.50;;;8.90;99.90;;;;;;5058328;28;20501;-71
2022/03/27 08:13:13;;;;;;;0.47;0.47;;;9.00;99.90;;;;;;5057699;28;20967;-70
2022/03/27 08:16:00;;;;;;;0.60;0.60;;;9.10;99.90;;;;;;5058440;28;20420;-70
2022/03/27 08:18:47;;;;;;;0.40;0.40;;;9.20;99.90;;;;;;5058503;28;20960;-72
2022/03/27 08:21:37;;;;;;;0.50;0.50;;;9.30;99.90;;;;;;5056912;28;20810;-69
2022/03/27 08:24:24;;;;;;;0.40;0.40;;;9.30;99.90;;;;;;5058312;28;20921;-71
2022/03/27 08:27:11;;;;;;;1.13;1.03;;;9.40;99.90;;;;;;5057375;28;20456;-71
2022/03/27 08:29:58;;;;;;;2.60;2.50;;;9.50;99.90;;;;;;5058224;28;20862;-70
2022/03/27 08:32:45;;;;;;;0.60;0.60;;;9.60;99.90;;;;;;5058914;28;20523;-72
2022/03/27 08:35:32;;;;;;;1.17;1.17;;;9.70;99.90;;;;;;5058143;28;20428;-70
2022/03/27 08:38:21;;;;;;;0.50;0.50;;;9.70;99.90;;;;;;5058048;28;20452;-70
2022/03/27 08:41:10;;;;;;;0.47;0.47;;;9.80;99.90;;;;;;5058241;28;20424;-70
2022/03/27 08:43:59;;;;;;;0.50;0.50;;;9.90;99.90;;;;;;5057980;28;20463;-70
2022/03/27 08:46:47;;;;;;;0.40;0.40;;;10.00;99.90;;;;;;5057865;28;20511;-71
2022/03/27 08:49:40;;;;;;;0.50;0.50;;;10.10;99.90;;;;;;5058504;28;20480;-71
2022/03/27 08:52:35;;;;;;;1.73;0.87;;;10.20;99.90;;;;;;5058889;28;20420;-70
2022/03/27 08:55:36;;;;;;;0.60;0.60;;;10.30;99.90;;;;;;5058819;28;20484;-71
2022/03/27 08:58:32;;;;;;;3.33;0.90;;;10.30;99.90;;;;;;5055376;28;20451;-72
2022/03/27 09:01:19;;;;;;;0.80;0.80;;;10.40;99.90;;;;;;5055795;28;20428;-70
2022/03/27 09:04:06;;;;;;;0.40;0.40;;;10.50;99.90;;;;;;5055527;28;20460;-71
2022/03/27 09:06:53;;;;;;;0.43;0.43;;;10.60;99.90;;;;;;5055346;28;20474;-72
2022/03/27 09:09:40;;;;;;;2.23;1.63;;;10.80;99.90;;;;;;5056598;28;20822;-70
2022/03/27 09:12:29;;;;;;;0.57;0.57;;;10.90;99.90;;;;;;5055305;28;20417;-71
2022/03/27 09:15:19;;;;;;;0.77;0.77;;;10.80;99.90;;;;;;5056234;28;20847;-72
2022/03/27 09:18:08;;;;;;;0.53;0.53;;;10.90;99.90;;;;;;5055406;28;20455;-70
2022/03/27 09:20:55;;;;;;;2.70;1.33;;;11.00;99.90;;;;;;5055510;28;20429;-72
2022/03/27 09:23:42;;;;;;;0.50;0.50;;;11.10;99.90;;;;;;5054407;28;20463;-70
2022/03/27 09:26:31;;;;;;;0.50;0.50;;;11.20;99.90;;;;;;5054489;28;20437;-69
2022/03/27 09:29:19;;;;;;;0.60;0.60;;;11.20;99.90;;;;;;5055254;28;20447;-71
2022/03/27 09:32:07;;;;;;;0.50;0.50;;;11.20;99.90;;;;;;5054400;28;20467;-72
2022/03/27 09:35:04;;;;;;;0.47;0.47;;;11.30;99.90;;;;;;5054612;28;20421;-71
2022/03/27 09:37:51;;;;;;;2.93;1.90;;;11.40;99.90;;;;;;5054621;28;20417;-70
2022/03/27 09:40:38;;;;;;;0.50;0.50;;;11.50;99.90;;;;;;5055204;28;20427;-68
2022/03/27 09:43:25;;;;;;;5.20;1.00;;;11.60;99.90;;;;;;5054032;28;20475;-70
2022/03/27 09:46:13;;;;;;;0.73;0.73;;;11.60;99.90;;;;;;5054276;28;20425;-68
2022/03/27 09:49:00;;;;;;;0.40;0.40;;;11.60;99.90;;;;;;5053889;28;20440;-68
2022/03/27 09:51:54;;;;;;;0.60;0.60;;;11.60;99.90;;;;;;5054218;28;20955;-70
2022/03/27 09:54:55;;;;;;;1.57;1.10;;;11.50;99.90;;;;;;5054778;28;20470;-72
2022/03/27 09:57:42;;;;;;;0.47;0.47;;;11.50;99.90;;;;;;5053652;28;20436;-69
2022/03/27 10:00:29;;;;;;;0.50;0.50;;;11.50;99.90;;;;;;5053518;28;20417;-67
2022/03/27 10:03:18;;;;;;;0.47;0.47;;;11.60;99.90;;;;;;5052349;28;20456;-68
2022/03/27 10:06:25;;;;;;;0.50;0.50;;;11.70;99.90;;;;;;5052320;28;20428;-70
2022/03/27 10:09:13;;;;;;;0.40;0.40;;;11.80;99.90;;;;;;5051291;28;20843;-68
2022/03/27 10:12:00;;;;;;;0.50;0.50;;;11.90;99.90;;;;;;5052947;28;20815;-67
2022/03/27 10:14:48;;;;;;;1.33;0.90;;;12.00;99.90;;;;;;5052948;28;20427;-68
2022/03/27 10:17:36;;;;;;;0.50;0.50;;;12.10;99.90;;;;;;5052534;28;20635;-68
2022/03/27 10:20:29;;;;;;;0.50;0.50;;;12.20;99.90;;;;;;5052028;28;20428;-69
2022/03/27 10:23:22;;;;;;;0.80;0.80;;;12.20;99.90;;;;;;5052785;28;20513;-67
2022/03/27 10:26:09;;;;;;;0.50;0.50;;;12.30;99.90;;;;;;5052345;28;20429;-68
2022/03/27 10:28:57;;;;;;;1.87;1.67;;;12.20;99.90;;;;;;5052218;28;20452;-68
2022/03/27 10:31:44;;;;;;;1.27;0.97;;;12.30;99.90;;;;;;5052378;28;20424;-69
2022/03/27 10:34:37;;;;;;;0.43;0.43;;;12.30;99.90;;;;;;5052929;28;20416;-69
2022/03/27 10:37:34;;;;;;;0.50;0.50;;;12.40;99.90;;;;;;5052137;28;20527;-69
2022/03/27 10:40:27;;;;;;;0.47;0.47;;;12.50;99.90;;;;;;5053023;28;20428;-68
2022/03/27 10:43:24;;;;;;;0.60;0.60;;;12.60;99.90;;;;;;5051164;28;20468;-71
2022/03/27 10:46:13;;;;;;;0.40;0.40;;;12.70;99.90;;;;;;5052652;28;20439;-69
2022/03/27 10:49:13;;;;;;;0.40;0.40;;;12.80;99.90;;;;;;5052218;28;20463;-71
2022/03/27 10:52:05;;;;;;;0.60;0.60;;;13.00;99.90;;;;;;5051941;28;20424;-69
2022/03/27 10:55:07;;;;;;;3.23;3.03;;;13.10;99.90;;;;;;5052588;28;20428;-68
2022/03/27 10:57:54;;;;;;;0.50;0.50;;;13.20;99.90;;;;;;5051486;28;20978;-69
2022/03/27 11:00:42;;;;;;;0.77;0.60;;;13.40;99.90;;;;;;5053177;28;20479;-68
2022/03/27 11:03:44;;;;;;;0.50;0.50;;;13.30;99.90;;;;;;5053184;28;20506;-69
2022/03/27 11:06:33;;;;;;;0.50;0.50;;;13.30;99.90;;;;;;5053466;28;20424;-68
2022/03/27 11:09:36;;;;;;;0.47;0.47;;;13.20;99.90;;;;;;5053059;28;20460;-68
2022/03/27 11:12:31;;;;;;;0.83;0.83;;;13.20;99.90;;;;;;5052141;28;20806;-69
2022/03/27 11:15:18;;;;;;;0.50;0.50;;;13.00;99.90;;;;;;5052655;28;20998;-68
2022/03/27 11:18:12;;;;;;;0.77;0.77;;;12.90;99.90;;;;;;5052591;28;20455;-68
2022/03/27 11:20:59;;;;;;;0.70;0.70;;;12.80;99.90;;;;;;5052151;28;20424;-67
2022/03/27 11:23:46;;;;;;;0.50;0.50;;;12.80;99.90;;;;;;5052538;28;20467;-67
2022/03/27 11:26:34;;;;;;;0.40;0.40;;;12.90;99.90;;;;;;5052444;28;20428;-67
2022/03/27 11:29:24;;;;;;;0.50;0.50;;;12.90;99.90;;;;;;5052600;28;20480;-69
2022/03/27 11:32:11;;;;;;;0.70;0.70;;;13.00;99.90;;;;;;5052317;28;20424;-68
2022/03/27 11:35:12;;;;;;;0.40;0.40;;;12.90;99.90;;;;;;5052565;28;20766;-68
2022/03/27 11:38:22;;;;;;;0.40;0.40;;;12.90;99.90;;;;;;5052692;28;20451;-68
2022/03/27 11:41:25;;;;;;;0.50;0.50;;;13.10;99.90;;;;;;5052442;28;20804;-67
2022/03/27 11:45:06;;;;;;;1.10;0.93;;;13.30;99.90;;;;;;5052287;28;20854;-69
2022/03/27 11:47:36;;;;;;;0.50;0.50;;;13.30;99.90;;;;;;5052712;28;20803;-67
2022/03/27 11:50:31;;;;;;;1.23;1.13;;;13.30;99.90;;;;;;5052429;28;20433;-67
2022/03/27 11:53:30;;;;;;;1.03;0.93;;;13.30;99.90;;;;;;5052218;28;20417;-68
2022/03/27 11:56:17;;;;;;;0.50;0.50;;;13.40;99.90;;;;;;5052200;28;20432;-68
2022/03/27 11:59:05;;;;;;;0.50;0.50;;;13.50;99.90;;;;;;5051818;28;20451;-67
2022/03/27 12:01:54;;;;;;;0.47;0.47;;;13.50;99.90;;;;;;5051632;28;20432;-68
2022/03/27 12:04:53;;;;;;;0.50;0.50;;;13.60;99.90;;;;;;5051229;28;20554;-68
2022/03/27 12:07:52;;;;;;;2.00;0.93;;;13.80;99.90;;;;;;5051784;28;20433;-69
2022/03/27 12:10:42;;;;;;;1.57;1.47;;;14.00;99.90;;;;;;5051955;28;20983;-68
2022/03/27 12:13:29;;;;;;;0.40;0.40;;;14.00;99.90;;;;;;5050858;28;20824;-69
2022/03/27 12:16:17;;;;;;;1.23;0.80;;;13.90;99.90;;;;;;5051681;28;20420;-69
2022/03/27 12:19:14;;;;;;;0.50;0.50;;;13.90;99.90;;;;;;5051405;28;20441;-68
2022/03/27 12:22:01;;;;;;;0.50;0.50;;;13.90;99.90;;;;;;5051387;28;20427;-68
2022/03/27 12:24:48;;;;;;;0.60;0.60;;;13.90;99.90;;;;;;5050917;28;20464;-67
2022/03/27 12:30:41;;;;;;;0.40;0.40;;;14.10;99.90;;;;;;5050482;28;20495;-69
2022/03/27 12:33:28;;;;;;;0.40;0.40;;;14.10;99.90;;;;;;5053254;28;20420;-68
2022/03/27 12:36:16;;;;;;;0.40;0.40;;;14.20;99.90;;;;;;5055407;28;20427;-70
2022/03/27 12:39:13;;;;;;;0.40;0.40;;;14.20;99.90;;;;;;5055456;28;21166;-68
2022/03/27 12:42:00;;;;;;;0.73;0.73;;;14.20;99.90;;;;;;5053913;28;20424;-69
2022/03/27 12:44:48;;;;;;;0.60;0.60;;;14.20;99.90;;;;;;5055112;28;20861;-68
2022/03/27 12:47:38;;;;;;;0.60;0.60;;;14.30;99.90;;;;;;5055404;28;20201;-67
2022/03/27 12:50:34;;;;;;;0.43;0.43;;;14.40;99.90;;;;;;5055269;28;20420;-67
2022/03/27 12:53:31;;;;;;;0.40;0.40;;;14.40;99.90;;;;;;5054845;28;20420;-66
2022/03/27 12:56:18;;;;;;;0.50;0.50;;;14.40;99.90;;;;;;5054935;28;20887;-69
2022/03/27 12:59:19;;;;;;;0.50;0.50;;;14.60;99.90;;;;;;5055588;28;20480;-68
2022/03/27 13:02:27;;;;;;;0.40;0.40;;;14.90;99.90;;;;;;5054931;28;20431;-68
2022/03/27 13:05:15;;;;;;;0.40;0.40;;;15.30;99.90;;;;;;5054169;28;20468;-68
2022/03/27 13:08:02;;;;;;;1.10;1.10;;;15.70;99.90;;;;;;5054214;28;20580;-70
2022/03/27 13:10:57;;;;;;;2.42;0.93;;;16.10;99.90;;;;;;5054392;28;20205;-69
2022/03/27 13:13:45;;;;;;;2.80;1.57;;;16.60;99.90;;;;;;5054125;28;20212;-70
2022/03/27 13:16:34;;;;;;;1.80;1.70;;;16.70;99.90;;;;;;5054189;28;20208;-68
2022/03/27 13:19:22;;;;;;;0.50;0.50;;;17.20;99.90;;;;;;5053996;28;20221;-72
2022/03/27 13:22:10;;;;;;;1.10;0.82;;;18.50;99.90;;;;;;5054364;28;20197;-67
2022/03/27 13:24:57;;;;;;;0.82;0.82;;;20.00;99.90;;;;;;5055232;28;20323;-68
2022/03/27 13:27:45;;;;;;;0.40;0.40;;;21.10;99.90;;;;;;5054806;28;20587;-67
2022/03/27 13:30:33;;;;;;;0.40;0.40;;;22.60;96.80;;;;;;5055888;28;20210;-67
2022/03/27 13:33:19;;;;;;;1.35;1.25;;;23.50;92.80;;;;;;5054555;28;20208;-68
2022/03/27 13:36:07;;;;;;;0.77;0.77;;;24.00;85.20;;;;;;5054989;28;20201;-67
2022/03/27 13:38:53;;;;;;;0.40;0.40;;;23.90;79.60;;;;;;5054817;28;20225;-67
2022/03/27 13:44:49;;;;;;;1.02;1.02;;;23.70;74.50;;;;;;5053393;28;20218;-67
2022/03/27 13:47:35;;;;;;;0.75;0.70;;;24.50;72.90;;;;;;5054732;28;20284;-70
2022/03/27 13:50:24;;;;;;;1.88;0.90;;;24.90;73.10;;;;;;5055003;28;20675;-69
2022/03/27 13:53:11;;;;;;;0.50;0.50;;;24.60;72.40;;;;;;5054763;28;20205;-67
2022/03/27 13:56:00;;;;;;;0.93;0.93;;;24.20;72.30;;;;;;5055020;28;20198;-69
2022/03/27 13:58:47;;;;;;;0.50;0.50;;;24.30;71.70;;;;;;5035614;28;20218;-70
2022/03/27 14:01:36;;;;;;;0.50;0.50;;;24.70;70.60;;;;;;5034943;28;20202;-69
2022/03/27 14:04:23;;;;;;;0.60;0.60;;;25.40;68.30;;;;;;5034015;28;20264;-67
2022/03/27 14:07:10;;;;;;;0.40;0.40;;;25.90;66.20;;;;;;5036219;28;20209;-67
2022/03/27 14:09:57;;;;;;;1.33;1.23;;;26.50;64.90;;;;;;5035200;28;20647;-68
2022/03/27 14:12:44;;;;;;;0.40;0.40;;;27.30;63.50;;;;;;5035870;28;20289;-68
2022/03/27 14:15:32;;;;;;;1.00;0.90;;;28.20;58.70;;;;;;5035611;28;20686;-67
2022/03/27 14:18:21;;;;;;;0.60;0.60;;;27.50;57.80;;;;;;5036211;28;20259;-68
2022/03/27 14:21:08;;;;;;;0.60;0.60;;;27.20;58.40;;;;;;5035529;28;20713;-68
2022/03/27 14:23:56;;;;;;;0.40;0.40;;;27.10;58.60;;;;;;5036036;28;20241;-67
2022/03/27 14:26:44;;;;;;;1.83;0.95;;;26.80;57.50;;;;;;5034284;28;20264;-68
2022/03/27 14:29:32;;;;;;;0.93;0.80;;;26.60;57.30;;;;;;5034248;28;20219;-68
2022/03/27 14:32:20;;;;;;;0.45;0.45;;;26.60;56.60;;;;;;5034877;28;20199;-68
2022/03/27 14:35:10;;;;;;;0.50;0.50;;;26.30;56.30;;;;;;5034661;28;20718;-68
2022/03/27 14:37:57;;;;;;;0.50;0.50;;;27.40;54.30;;;;;;5032687;28;20746;-68
2022/03/27 14:40:44;;;;;;;0.40;0.40;;;27.50;54.70;;;;;;5032632;28;20557;-68
2022/03/27 14:43:32;;;;;;;0.40;0.40;;;28.50;53.70;;;;;;5032538;28;20209;-68
2022/03/27 14:46:19;;;;;;;0.50;0.43;;;27.30;54.20;;;;;;5033230;28;20206;-67
2022/03/27 14:49:05;;;;;;;0.40;0.40;;;25.50;54.60;;;;;;5033488;28;20222;-67
2022/03/27 14:51:54;;;;;;;0.40;0.40;;;23.80;56.80;;;;;;5033168;28;20198;-67
2022/03/27 14:57:45;;;;;;;0.40;0.40;;;22.10;60.40;;;;;;5047301;28;20247;-68